sensor_id;sensor_type;location;lat;lon;timestamp;temperature;humidity
10042;DHT22;5061;49.068;12.058;2022-12-24T00:01:09;9.90;99.90
10042;DHT22;5061;49.068;12.058;2022-12-24T00:04:29;9.90;99.90
10042;DHT22;5061;49.068;12.058;2022-12-24T00:07:50;9.90;99.90
10042;DHT22;5061;49.068;12.058;2022-12-24T00:11:11;9.80;99.90
10042;DHT22;5061;49.068;12.058;2022-12-24T00:14:31;9.80;99.90
10042;DHT22;5061;49.068;12.058;2022-12-24T00:17:52;9.80;99.90
10042;DHT22;5061;49.068;12.058;2022-12-24T00:21:14;9.80;99.90
10042;DHT22;5061;49.068;12.058;2022-12-24T00:24:34;9.80;99.90
10042;DHT22;5061;49.068;12.058;2022-12-24T00:27:55;9.80;99.90
10042;DHT22;5061;49.068;12.058;2022-12-24T00:31:17;9.80;99.90
10042;DHT22;5061;49.068;12.058;2022-12-24T00:34:38;9.80;99.90
10042;DHT22;5061;49.068;12.058;2022-12-24T00:37:59;9.70;99.90
10042;DHT22;5061;49.068;12.058;2022-12-24T00:41:20;9.70;99.90
10042;DHT22;5061;49.068;12.058;2022-12-24T00:44:49;9.70;99.90
10042;DHT22;5061;49.068;12.058;2022-12-24T00:48:09;9.70;99.90
10042;DHT22;5061;49.068;12.058;2022-12-24T00:51:30;9.70;99.90
10042;DHT22;5061;49.068;12.058;2022-12-24T00:54:51;9.70;99.90
10042;DHT22;5061;49.068;12.058;2022-12-24T00:58:12;9.70;99.90
10042;DHT22;5061;49.068;12.058;2022-12-24T01:01:32;9.70;99.90
10042;DHT22;5061;49.068;12.058;2022-12-24T01:04:55;9.60;99.90
10042;DHT22;5061;49.068;12.058;2022-12-24T01:08:31;9.60;99.90
10042;DHT22;5061;49.068;12.058;2022-12-24T01:11:52;9.60;99.90
10042;DHT22;5061;49.068;12.058;2022-12-24T01:15:13;9.60;99.90
10042;DHT22;5061;49.068;12.058;2022-12-24T01:18:34;9.50;99.90
10042;DHT22;5061;49.068;12.058;2022-12-24T01:21:55;9.50;99.90
10042;DHT22;5061;49.068;12.058;2022-12-24T01:25:15;9.50;99.90
10042;DHT22;5061;49.068;12.058;2022-12-24T01:28:36;9.40;99.90
10042;DHT22;5061;49.068;12.058;2022-12-24T01:31:57;9.40;99.90
10042;DHT22;5061;49.068;12.058;2022-12-24T01:35:17;9.30;99.90
10042;DHT22;5061;49.068;12.058;2022-12-24T01:38:38;9.30;99.90
10042;DHT22;5061;49.068;12.058;2022-12-24T01:41:59;9.20;99.90
10042;DHT22;5061;49.068;12.058;2022-12-24T01:45:52;9.20;99.90
10042;DHT22;5061;49.068;12.058;2022-12-24T01:49:13;9.20;99.90
10042;DHT22;5061;49.068;12.058;2022-12-24T01:52:35;9.10;99.90
10042;DHT22;5061;49.068;12.058;2022-12-24T01:55:56;9.20;99.90
10042;DHT22;5061;49.068;12.058;2022-12-24T01:59:18;9.20;99.90
10042;DHT22;5061;49.068;12.058;2022-12-24T02:02:40;9.20;99.90
10042;DHT22;5061;49.068;12.058;2022-12-24T02:06:01;9.20;99.90
10042;DHT22;5061;49.068;12.058;2022-12-24T02:09:22;9.20;99.90
10042;DHT22;5061;49.068;12.058;2022-12-24T02:12:43;9.10;99.90
10042;DHT22;5061;49.068;12.058;2022-12-24T02:16:41;9.10;99.90
10042;DHT22;5061;49.068;12.058;2022-12-24T02:20:20;9.10;99.90
10042;DHT22;5061;49.068;12.058;2022-12-24T02:28:14;9.00;99.90
10042;DHT22;5061;49.068;12.058;2022-12-24T02:38:31;9.00;99.90
10042;DHT22;5061;49.068;12.058;2022-12-24T02:41:54;9.00;99.90
10042;DHT22;5061;49.068;12.058;2022-12-24T02:45:28;9.00;99.90
10042;DHT22;5061;49.068;12.058;2022-12-24T02:48:50;8.90;99.90
10042;DHT22;5061;49.068;12.058;2022-12-24T02:52:32;8.90;99.90
10042;DHT22;5061;49.068;12.058;2022-12-24T03:03:19;8.80;99.90
10042;DHT22;5061;49.068;12.058;2022-12-24T03:10:33;8.70;99.90
10042;DHT22;5061;49.068;12.058;2022-12-24T03:13:57;8.70;99.90
10042;DHT22;5061;49.068;12.058;2022-12-24T03:17:19;8.70;99.90
10042;DHT22;5061;49.068;12.058;2022-12-24T03:20:43;8.70;99.90
10042;DHT22;5061;49.068;12.058;2022-12-24T03:24:04;8.70;99.90
10042;DHT22;5061;49.068;12.058;2022-12-24T03:27:26;8.70;99.90
10042;DHT22;5061;49.068;12.058;2022-12-24T03:30:47;8.70;99.90
10042;DHT22;5061;49.068;12.058;2022-12-24T03:34:09;8.60;99.90
10042;DHT22;5061;49.068;12.058;2022-12-24T03:37:30;8.60;99.90
10042;DHT22;5061;49.068;12.058;2022-12-24T03:40:50;8.60;99.90
10042;DHT22;5061;49.068;12.058;2022-12-24T03:44:11;8.60;99.90
10042;DHT22;5061;49.068;12.058;2022-12-24T03:47:32;8.60;99.90
10042;DHT22;5061;49.068;12.058;2022-12-24T03:50:52;8.60;99.90
10042;DHT22;5061;49.068;12.058;2022-12-24T03:54:13;8.60;99.90
10042;DHT22;5061;49.068;12.058;2022-12-24T03:57:33;8.50;99.90
10042;DHT22;5061;49.068;12.058;2022-12-24T04:00:54;8.50;99.90
10042;DHT22;5061;49.068;12.058;2022-12-24T04:04:15;8.60;99.90
10042;DHT22;5061;49.068;12.058;2022-12-24T04:07:35;8.50;99.90
10042;DHT22;5061;49.068;12.058;2022-12-24T04:10:56;8.60;99.90
10042;DHT22;5061;49.068;12.058;2022-12-24T04:14:17;8.60;99.90
10042;DHT22;5061;49.068;12.058;2022-12-24T04:17:37;8.60;99.90
10042;DHT22;5061;49.068;12.058;2022-12-24T04:20:58;8.60;99.90
10042;DHT22;5061;49.068;12.058;2022-12-24T04:24:19;8.60;99.90
10042;DHT22;5061;49.068;12.058;2022-12-24T04:27:39;8.60;99.90
10042;DHT22;5061;49.068;12.058;2022-12-24T04:31:01;8.60;99.90
10042;DHT22;5061;49.068;12.058;2022-12-24T04:34:22;8.60;99.90
10042;DHT22;5061;49.068;12.058;2022-12-24T04:37:43;8.60;99.90
10042;DHT22;5061;49.068;12.058;2022-12-24T04:44:24;8.50;99.90
10042;DHT22;5061;49.068;12.058;2022-12-24T04:47:45;8.50;99.90
10042;DHT22;5061;49.068;12.058;2022-12-24T04:51:07;8.40;99.90
10042;DHT22;5061;49.068;12.058;2022-12-24T04:54:28;8.40;99.90
10042;DHT22;5061;49.068;12.058;2022-12-24T04:57:48;8.30;99.90
10042;DHT22;5061;49.068;12.058;2022-12-24T05:01:15;8.30;99.90
10042;DHT22;5061;49.068;12.058;2022-12-24T05:04:36;8.20;99.90
10042;DHT22;5061;49.068;12.058;2022-12-24T05:07:57;8.20;99.90
10042;DHT22;5061;49.068;12.058;2022-12-24T05:11:18;8.20;99.90
10042;DHT22;5061;49.068;12.058;2022-12-24T05:14:39;8.20;99.90
10042;DHT22;5061;49.068;12.058;2022-12-24T05:17:59;8.30;99.90
10042;DHT22;5061;49.068;12.058;2022-12-24T05:21:22;8.20;99.90
10042;DHT22;5061;49.068;12.058;2022-12-24T05:24:42;8.30;99.90
10042;DHT22;5061;49.068;12.058;2022-12-24T05:28:21;8.20;99.90
10042;DHT22;5061;49.068;12.058;2022-12-24T05:31:43;8.20;99.90
10042;DHT22;5061;49.068;12.058;2022-12-24T05:35:04;8.10;99.90
10042;DHT22;5061;49.068;12.058;2022-12-24T05:38:25;8.10;99.90
10042;DHT22;5061;49.068;12.058;2022-12-24T05:41:45;8.00;99.90
10042;DHT22;5061;49.068;12.058;2022-12-24T05:45:07;8.00;99.90
10042;DHT22;5061;49.068;12.058;2022-12-24T05:48:27;8.00;99.90
10042;DHT22;5061;49.068;12.058;2022-12-24T05:51:48;8.00;99.90
10042;DHT22;5061;49.068;12.058;2022-12-24T05:55:09;8.00;99.90
10042;DHT22;5061;49.068;12.058;2022-12-24T05:58:30;8.00;99.90
10042;DHT22;5061;49.068;12.058;2022-12-24T06:01:50;8.00;99.90
10042;DHT22;5061;49.068;12.058;2022-12-24T06:05:11;8.00;99.90
10042;DHT22;5061;49.068;12.058;2022-12-24T06:08:33;8.00;99.90
10042;DHT22;5061;49.068;12.058;2022-12-24T06:11:53;8.00;99.90
10042;DHT22;5061;49.068;12.058;2022-12-24T06:15:14;8.00;99.90
10042;DHT22;5061;49.068;12.058;2022-12-24T06:18:35;8.00;99.90
10042;DHT22;5061;49.068;12.058;2022-12-24T06:21:56;7.90;99.90
10042;DHT22;5061;49.068;12.058;2022-12-24T06:25:16;7.90;99.90
10042;DHT22;5061;49.068;12.058;2022-12-24T06:28:37;7.90;99.90
10042;DHT22;5061;49.068;12.058;2022-12-24T06:31:58;7.90;99.90
10042;DHT22;5061;49.068;12.058;2022-12-24T06:35:19;7.90;99.90
10042;DHT22;5061;49.068;12.058;2022-12-24T06:38:39;7.80;99.90
10042;DHT22;5061;49.068;12.058;2022-12-24T06:42:00;7.80;99.90
10042;DHT22;5061;49.068;12.058;2022-12-24T06:45:20;7.80;99.90
10042;DHT22;5061;49.068;12.058;2022-12-24T06:48:42;7.70;99.90
10042;DHT22;5061;49.068;12.058;2022-12-24T06:52:04;7.70;99.90
10042;DHT22;5061;49.068;12.058;2022-12-24T06:55:24;7.70;99.90
10042;DHT22;5061;49.068;12.058;2022-12-24T06:58:45;7.60;99.90
10042;DHT22;5061;49.068;12.058;2022-12-24T07:02:05;7.60;99.90
10042;DHT22;5061;49.068;12.058;2022-12-24T07:05:26;7.60;99.90
10042;DHT22;5061;49.068;12.058;2022-12-24T07:08:47;7.60;99.90
10042;DHT22;5061;49.068;12.058;2022-12-24T07:12:08;7.60;99.90
10042;DHT22;5061;49.068;12.058;2022-12-24T07:15:29;7.60;99.90
10042;DHT22;5061;49.068;12.058;2022-12-24T07:18:49;7.60;99.90
10042;DHT22;5061;49.068;12.058;2022-12-24T07:22:10;7.60;99.90
10042;DHT22;5061;49.068;12.058;2022-12-24T07:25:30;7.60;99.90
10042;DHT22;5061;49.068;12.058;2022-12-24T07:28:51;7.60;99.90
10042;DHT22;5061;49.068;12.058;2022-12-24T07:32:11;7.70;99.90
10042;DHT22;5061;49.068;12.058;2022-12-24T07:35:32;7.70;99.90
10042;DHT22;5061;49.068;12.058;2022-12-24T07:38:53;7.70;99.90
10042;DHT22;5061;49.068;12.058;2022-12-24T07:42:14;7.70;99.90
10042;DHT22;5061;49.068;12.058;2022-12-24T07:45:34;7.80;99.90
10042;DHT22;5061;49.068;12.058;2022-12-24T07:48:55;7.80;99.90
10042;DHT22;5061;49.068;12.058;2022-12-24T07:52:15;7.90;99.90
10042;DHT22;5061;49.068;12.058;2022-12-24T07:55:36;7.90;99.90
10042;DHT22;5061;49.068;12.058;2022-12-24T07:58:57;8.00;99.90
10042;DHT22;5061;49.068;12.058;2022-12-24T08:02:17;8.00;99.90
10042;DHT22;5061;49.068;12.058;2022-12-24T08:05:38;8.00;99.90
10042;DHT22;5061;49.068;12.058;2022-12-24T08:08:58;8.10;99.90
10042;DHT22;5061;49.068;12.058;2022-12-24T08:12:19;8.20;99.90
10042;DHT22;5061;49.068;12.058;2022-12-24T08:15:40;8.20;99.90
10042;DHT22;5061;49.068;12.058;2022-12-24T08:19:00;8.20;99.90
10042;DHT22;5061;49.068;12.058;2022-12-24T08:22:21;8.20;99.90
10042;DHT22;5061;49.068;12.058;2022-12-24T08:25:43;8.30;99.90
10042;DHT22;5061;49.068;12.058;2022-12-24T08:29:04;8.30;99.90
10042;DHT22;5061;49.068;12.058;2022-12-24T08:32:25;8.30;99.90
10042;DHT22;5061;49.068;12.058;2022-12-24T08:35:51;8.30;99.90
10042;DHT22;5061;49.068;12.058;2022-12-24T08:39:11;8.30;99.90
10042;DHT22;5061;49.068;12.058;2022-12-24T08:42:32;8.30;99.90
10042;DHT22;5061;49.068;12.058;2022-12-24T08:45:53;8.30;99.90
10042;DHT22;5061;49.068;12.058;2022-12-24T08:49:13;8.30;99.90
10042;DHT22;5061;49.068;12.058;2022-12-24T08:52:34;8.30;99.90
10042;DHT22;5061;49.068;12.058;2022-12-24T08:56:01;8.40;99.90
10042;DHT22;5061;49.068;12.058;2022-12-24T08:59:22;8.40;99.90
10042;DHT22;5061;49.068;12.058;2022-12-24T09:02:43;8.40;99.90
10042;DHT22;5061;49.068;12.058;2022-12-24T09:06:04;8.40;99.90
10042;DHT22;5061;49.068;12.058;2022-12-24T09:09:25;8.50;99.90
10042;DHT22;5061;49.068;12.058;2022-12-24T09:12:46;8.50;99.90
10042;DHT22;5061;49.068;12.058;2022-12-24T09:16:07;8.50;99.90
10042;DHT22;5061;49.068;12.058;2022-12-24T09:19:28;8.50;99.90
10042;DHT22;5061;49.068;12.058;2022-12-24T09:22:49;8.60;99.90
10042;DHT22;5061;49.068;12.058;2022-12-24T09:26:13;8.50;99.90
10042;DHT22;5061;49.068;12.058;2022-12-24T09:29:34;8.60;99.90
10042;DHT22;5061;49.068;12.058;2022-12-24T09:32:56;8.60;99.90
10042;DHT22;5061;49.068;12.058;2022-12-24T09:36:17;8.60;99.90
10042;DHT22;5061;49.068;12.058;2022-12-24T09:39:38;8.60;99.90
10042;DHT22;5061;49.068;12.058;2022-12-24T09:42:59;8.60;99.90
10042;DHT22;5061;49.068;12.058;2022-12-24T09:46:25;8.70;99.90
10042;DHT22;5061;49.068;12.058;2022-12-24T09:49:49;8.70;99.90
10042;DHT22;5061;49.068;12.058;2022-12-24T09:53:23;8.70;99.90
10042;DHT22;5061;49.068;12.058;2022-12-24T09:56:47;8.80;99.90
10042;DHT22;5061;49.068;12.058;2022-12-24T10:00:19;8.80;99.90
10042;DHT22;5061;49.068;12.058;2022-12-24T10:03:41;8.80;99.90
10042;DHT22;5061;49.068;12.058;2022-12-24T10:07:28;8.90;99.90
10042;DHT22;5061;49.068;12.058;2022-12-24T10:10:53;8.90;99.90
10042;DHT22;5061;49.068;12.058;2022-12-24T10:14:24;9.00;99.90
10042;DHT22;5061;49.068;12.058;2022-12-24T10:28:37;9.00;99.90
10042;DHT22;5061;49.068;12.058;2022-12-24T10:35:33;9.10;99.90
10042;DHT22;5061;49.068;12.058;2022-12-24T10:38:57;9.10;99.90
10042;DHT22;5061;49.068;12.058;2022-12-24T10:42:19;9.10;99.90
10042;DHT22;5061;49.068;12.058;2022-12-24T10:45:45;9.10;99.90
10042;DHT22;5061;49.068;12.058;2022-12-24T10:49:15;9.10;99.90
10042;DHT22;5061;49.068;12.058;2022-12-24T10:52:38;9.20;99.90
10042;DHT22;5061;49.068;12.058;2022-12-24T10:56:06;9.30;99.90
10042;DHT22;5061;49.068;12.058;2022-12-24T10:59:41;9.40;99.90
10042;DHT22;5061;49.068;12.058;2022-12-24T11:06:31;9.50;99.90
10042;DHT22;5061;49.068;12.058;2022-12-24T11:13:33;9.70;99.90
10042;DHT22;5061;49.068;12.058;2022-12-24T11:16:57;9.70;99.90
10042;DHT22;5061;49.068;12.058;2022-12-24T11:20:24;9.90;99.90
10042;DHT22;5061;49.068;12.058;2022-12-24T11:27:40;9.90;99.90
10042;DHT22;5061;49.068;12.058;2022-12-24T11:34:28;10.10;99.90
10042;DHT22;5061;49.068;12.058;2022-12-24T11:38:09;10.10;99.90
10042;DHT22;5061;49.068;12.058;2022-12-24T11:41:36;10.20;99.90
10042;DHT22;5061;49.068;12.058;2022-12-24T11:44:57;10.20;99.90
10042;DHT22;5061;49.068;12.058;2022-12-24T11:48:29;10.20;99.90
10042;DHT22;5061;49.068;12.058;2022-12-24T11:59:36;10.30;99.90
10042;DHT22;5061;49.068;12.058;2022-12-24T12:03:01;10.30;99.90
10042;DHT22;5061;49.068;12.058;2022-12-24T12:06:36;10.30;99.90
10042;DHT22;5061;49.068;12.058;2022-12-24T12:10:49;10.30;99.90
10042;DHT22;5061;49.068;12.058;2022-12-24T12:14:04;10.30;99.90
10042;DHT22;5061;49.068;12.058;2022-12-24T12:17:29;10.30;99.90
10042;DHT22;5061;49.068;12.058;2022-12-24T12:20:55;10.30;99.90
10042;DHT22;5061;49.068;12.058;2022-12-24T12:24:24;10.30;99.90
10042;DHT22;5061;49.068;12.058;2022-12-24T12:27:50;10.30;99.90
10042;DHT22;5061;49.068;12.058;2022-12-24T12:34:41;10.30;99.90
10042;DHT22;5061;49.068;12.058;2022-12-24T12:38:08;10.30;99.90
10042;DHT22;5061;49.068;12.058;2022-12-24T12:49:23;10.20;99.90
10042;DHT22;5061;49.068;12.058;2022-12-24T12:52:39;10.10;99.90
10042;DHT22;5061;49.068;12.058;2022-12-24T12:56:32;10.10;99.90
10042;DHT22;5061;49.068;12.058;2022-12-24T12:59:58;10.10;99.90
10042;DHT22;5061;49.068;12.058;2022-12-24T13:18:34;10.00;99.90
10042;DHT22;5061;49.068;12.058;2022-12-24T13:22:00;10.00;99.90
10042;DHT22;5061;49.068;12.058;2022-12-24T13:25:39;10.00;99.90
10042;DHT22;5061;49.068;12.058;2022-12-24T13:29:28;10.00;99.90
10042;DHT22;5061;49.068;12.058;2022-12-24T13:32:51;10.00;99.90
10042;DHT22;5061;49.068;12.058;2022-12-24T13:36:14;10.00;99.90
10042;DHT22;5061;49.068;12.058;2022-12-24T13:47:34;10.00;99.90
10042;DHT22;5061;49.068;12.058;2022-12-24T13:58:18;10.00;99.90
10042;DHT22;5061;49.068;12.058;2022-12-24T14:01:43;10.00;99.90
10042;DHT22;5061;49.068;12.058;2022-12-24T14:05:07;10.00;99.90
10042;DHT22;5061;49.068;12.058;2022-12-24T14:08:40;10.00;99.90
10042;DHT22;5061;49.068;12.058;2022-12-24T14:16:01;9.90;99.90
10042;DHT22;5061;49.068;12.058;2022-12-24T14:19:25;9.80;99.90
10042;DHT22;5061;49.068;12.058;2022-12-24T14:22:47;9.70;99.90
10042;DHT22;5061;49.068;12.058;2022-12-24T14:26:17;9.60;99.90
10042;DHT22;5061;49.068;12.058;2022-12-24T14:33:30;9.60;99.90
10042;DHT22;5061;49.068;12.058;2022-12-24T14:36:54;9.50;99.90
10042;DHT22;5061;49.068;12.058;2022-12-24T14:40:17;9.50;99.90
10042;DHT22;5061;49.068;12.058;2022-12-24T14:47:24;9.40;99.90
10042;DHT22;5061;49.068;12.058;2022-12-24T14:50:58;9.30;99.90
10042;DHT22;5061;49.068;12.058;2022-12-24T14:57:43;9.10;99.90
10042;DHT22;5061;49.068;12.058;2022-12-24T15:01:23;9.10;99.90
10042;DHT22;5061;49.068;12.058;2022-12-24T15:04:44;9.00;99.90
10042;DHT22;5061;49.068;12.058;2022-12-24T15:08:16;8.90;99.90
10042;DHT22;5061;49.068;12.058;2022-12-24T15:11:37;8.80;99.90
10042;DHT22;5061;49.068;12.058;2022-12-24T15:14:58;8.80;99.90
10042;DHT22;5061;49.068;12.058;2022-12-24T15:18:25;8.70;99.90
10042;DHT22;5061;49.068;12.058;2022-12-24T15:21:46;8.70;99.90
10042;DHT22;5061;49.068;12.058;2022-12-24T15:28:38;8.60;99.90
10042;DHT22;5061;49.068;12.058;2022-12-24T15:32:00;8.60;99.90
10042;DHT22;5061;49.068;12.058;2022-12-24T15:39:13;8.50;99.90
10042;DHT22;5061;49.068;12.058;2022-12-24T15:42:40;8.50;99.90
10042;DHT22;5061;49.068;12.058;2022-12-24T15:46:01;8.40;99.90
10042;DHT22;5061;49.068;12.058;2022-12-24T15:49:22;8.30;99.90
10042;DHT22;5061;49.068;12.058;2022-12-24T15:52:43;8.30;99.90
10042;DHT22;5061;49.068;12.058;2022-12-24T15:56:12;8.20;99.90
10042;DHT22;5061;49.068;12.058;2022-12-24T15:59:34;8.10;99.90
10042;DHT22;5061;49.068;12.058;2022-12-24T16:03:16;8.10;99.90
10042;DHT22;5061;49.068;12.058;2022-12-24T16:06:58;8.00;99.90
10042;DHT22;5061;49.068;12.058;2022-12-24T16:10:23;7.90;99.90
10042;DHT22;5061;49.068;12.058;2022-12-24T16:13:54;7.80;99.90
10042;DHT22;5061;49.068;12.058;2022-12-24T16:17:22;7.70;99.90
10042;DHT22;5061;49.068;12.058;2022-12-24T16:20:48;7.70;99.90
10042;DHT22;5061;49.068;12.058;2022-12-24T16:24:24;7.70;99.90
10042;DHT22;5061;49.068;12.058;2022-12-24T16:27:45;7.60;99.90
10042;DHT22;5061;49.068;12.058;2022-12-24T16:31:06;7.60;99.90
10042;DHT22;5061;49.068;12.058;2022-12-24T16:34:28;7.50;99.90
10042;DHT22;5061;49.068;12.058;2022-12-24T16:37:49;7.50;99.90
10042;DHT22;5061;49.068;12.058;2022-12-24T16:41:10;7.40;99.90
10042;DHT22;5061;49.068;12.058;2022-12-24T16:44:30;7.30;99.90
10042;DHT22;5061;49.068;12.058;2022-12-24T16:47:51;7.30;99.90
10042;DHT22;5061;49.068;12.058;2022-12-24T16:51:11;7.20;99.90
10042;DHT22;5061;49.068;12.058;2022-12-24T16:54:32;7.20;99.90
10042;DHT22;5061;49.068;12.058;2022-12-24T16:57:53;7.20;99.90
10042;DHT22;5061;49.068;12.058;2022-12-24T17:01:13;7.20;99.90
10042;DHT22;5061;49.068;12.058;2022-12-24T17:04:36;7.10;99.90
10042;DHT22;5061;49.068;12.058;2022-12-24T17:08:00;7.10;99.90
10042;DHT22;5061;49.068;12.058;2022-12-24T17:11:22;7.00;99.90
10042;DHT22;5061;49.068;12.058;2022-12-24T17:14:43;7.10;99.90
10042;DHT22;5061;49.068;12.058;2022-12-24T17:18:04;7.00;99.90
10042;DHT22;5061;49.068;12.058;2022-12-24T17:21:24;7.00;99.90
10042;DHT22;5061;49.068;12.058;2022-12-24T17:24:45;7.00;99.90
10042;DHT22;5061;49.068;12.058;2022-12-24T17:28:06;7.00;99.90
10042;DHT22;5061;49.068;12.058;2022-12-24T17:31:26;7.00;99.90
10042;DHT22;5061;49.068;12.058;2022-12-24T17:34:47;7.00;99.90
10042;DHT22;5061;49.068;12.058;2022-12-24T17:38:08;6.90;99.90
10042;DHT22;5061;49.068;12.058;2022-12-24T17:41:28;6.90;99.90
10042;DHT22;5061;49.068;12.058;2022-12-24T17:44:49;6.90;99.90
10042;DHT22;5061;49.068;12.058;2022-12-24T17:48:10;6.90;99.90
10042;DHT22;5061;49.068;12.058;2022-12-24T17:51:30;6.90;99.90
10042;DHT22;5061;49.068;12.058;2022-12-24T17:54:52;6.90;99.90
10042;DHT22;5061;49.068;12.058;2022-12-24T17:58:14;6.90;99.90
10042;DHT22;5061;49.068;12.058;2022-12-24T18:01:34;7.00;99.90
10042;DHT22;5061;49.068;12.058;2022-12-24T18:04:55;7.00;99.90
10042;DHT22;5061;49.068;12.058;2022-12-24T18:08:16;7.00;99.90
10042;DHT22;5061;49.068;12.058;2022-12-24T18:11:37;7.00;99.90
10042;DHT22;5061;49.068;12.058;2022-12-24T18:14:57;7.00;99.90
10042;DHT22;5061;49.068;12.058;2022-12-24T18:18:19;7.10;99.90
10042;DHT22;5061;49.068;12.058;2022-12-24T18:21:40;7.10;99.90
10042;DHT22;5061;49.068;12.058;2022-12-24T18:25:00;7.10;99.90
10042;DHT22;5061;49.068;12.058;2022-12-24T18:28:21;7.20;99.90
10042;DHT22;5061;49.068;12.058;2022-12-24T18:31:41;7.20;99.90
10042;DHT22;5061;49.068;12.058;2022-12-24T18:35:03;7.20;99.90
10042;DHT22;5061;49.068;12.058;2022-12-24T18:38:24;7.20;99.90
10042;DHT22;5061;49.068;12.058;2022-12-24T18:41:44;7.20;99.90
10042;DHT22;5061;49.068;12.058;2022-12-24T18:45:05;7.20;99.90
10042;DHT22;5061;49.068;12.058;2022-12-24T18:48:26;7.20;99.90
10042;DHT22;5061;49.068;12.058;2022-12-24T18:51:47;7.20;99.90
10042;DHT22;5061;49.068;12.058;2022-12-24T18:55:08;7.20;99.90
10042;DHT22;5061;49.068;12.058;2022-12-24T18:58:28;7.20;99.90
10042;DHT22;5061;49.068;12.058;2022-12-24T19:01:50;7.20;99.90
10042;DHT22;5061;49.068;12.058;2022-12-24T19:05:10;7.20;99.90
10042;DHT22;5061;49.068;12.058;2022-12-24T19:08:34;7.20;99.90
10042;DHT22;5061;49.068;12.058;2022-12-24T19:11:55;7.20;99.90
10042;DHT22;5061;49.068;12.058;2022-12-24T19:15:16;7.20;99.90
10042;DHT22;5061;49.068;12.058;2022-12-24T19:18:37;7.20;99.90
10042;DHT22;5061;49.068;12.058;2022-12-24T19:21:57;7.20;99.90
10042;DHT22;5061;49.068;12.058;2022-12-24T19:25:18;7.20;99.90
10042;DHT22;5061;49.068;12.058;2022-12-24T19:28:39;7.20;99.90
10042;DHT22;5061;49.068;12.058;2022-12-24T19:32:00;7.20;99.90
10042;DHT22;5061;49.068;12.058;2022-12-24T19:35:21;7.30;99.90
10042;DHT22;5061;49.068;12.058;2022-12-24T19:38:42;7.30;99.90
10042;DHT22;5061;49.068;12.058;2022-12-24T19:42:02;7.30;99.90
10042;DHT22;5061;49.068;12.058;2022-12-24T19:45:23;7.30;99.90
10042;DHT22;5061;49.068;12.058;2022-12-24T19:48:51;7.30;99.90
10042;DHT22;5061;49.068;12.058;2022-12-24T19:52:12;7.30;99.90
10042;DHT22;5061;49.068;12.058;2022-12-24T19:55:32;7.30;99.90
10042;DHT22;5061;49.068;12.058;2022-12-24T19:58:56;7.30;99.90
10042;DHT22;5061;49.068;12.058;2022-12-24T20:02:20;7.30;99.90
10042;DHT22;5061;49.068;12.058;2022-12-24T20:05:41;7.30;99.90
10042;DHT22;5061;49.068;12.058;2022-12-24T20:09:06;7.30;99.90
10042;DHT22;5061;49.068;12.058;2022-12-24T20:12:35;7.30;99.90
10042;DHT22;5061;49.068;12.058;2022-12-24T20:15:55;7.30;99.90
10042;DHT22;5061;49.068;12.058;2022-12-24T20:19:16;7.30;99.90
10042;DHT22;5061;49.068;12.058;2022-12-24T20:22:36;7.30;99.90
10042;DHT22;5061;49.068;12.058;2022-12-24T20:26:02;7.30;99.90
10042;DHT22;5061;49.068;12.058;2022-12-24T20:29:23;7.30;99.90
10042;DHT22;5061;49.068;12.058;2022-12-24T20:32:44;7.30;99.90
10042;DHT22;5061;49.068;12.058;2022-12-24T20:36:06;7.30;99.90
10042;DHT22;5061;49.068;12.058;2022-12-24T20:39:27;7.30;99.90
10042;DHT22;5061;49.068;12.058;2022-12-24T20:42:47;7.30;99.90
10042;DHT22;5061;49.068;12.058;2022-12-24T20:46:09;7.20;99.90
10042;DHT22;5061;49.068;12.058;2022-12-24T20:49:29;7.20;99.90
10042;DHT22;5061;49.068;12.058;2022-12-24T20:52:51;7.20;99.90
10042;DHT22;5061;49.068;12.058;2022-12-24T20:56:13;7.20;99.90
10042;DHT22;5061;49.068;12.058;2022-12-24T20:59:33;7.20;99.90
10042;DHT22;5061;49.068;12.058;2022-12-24T21:02:54;7.20;99.90
10042;DHT22;5061;49.068;12.058;2022-12-24T21:06:15;7.20;99.90
10042;DHT22;5061;49.068;12.058;2022-12-24T21:09:39;7.20;99.90
10042;DHT22;5061;49.068;12.058;2022-12-24T21:12:59;7.20;99.90
10042;DHT22;5061;49.068;12.058;2022-12-24T21:16:20;7.20;99.90
10042;DHT22;5061;49.068;12.058;2022-12-24T21:19:41;7.20;99.90
10042;DHT22;5061;49.068;12.058;2022-12-24T21:23:01;7.20;99.90
10042;DHT22;5061;49.068;12.058;2022-12-24T21:26:22;7.20;99.90
10042;DHT22;5061;49.068;12.058;2022-12-24T21:29:43;7.20;99.90
10042;DHT22;5061;49.068;12.058;2022-12-24T21:33:03;7.20;99.90
10042;DHT22;5061;49.068;12.058;2022-12-24T21:36:24;7.30;99.90
10042;DHT22;5061;49.068;12.058;2022-12-24T21:39:46;7.20;99.90
10042;DHT22;5061;49.068;12.058;2022-12-24T21:43:07;7.20;99.90
10042;DHT22;5061;49.068;12.058;2022-12-24T21:46:28;7.20;99.90
10042;DHT22;5061;49.068;12.058;2022-12-24T21:49:48;7.20;99.90
10042;DHT22;5061;49.068;12.058;2022-12-24T21:53:27;7.20;99.90
10042;DHT22;5061;49.068;12.058;2022-12-24T21:57:08;7.20;99.90
10042;DHT22;5061;49.068;12.058;2022-12-24T22:00:47;7.20;99.90
10042;DHT22;5061;49.068;12.058;2022-12-24T22:04:07;7.20;99.90
10042;DHT22;5061;49.068;12.058;2022-12-24T22:07:28;7.20;99.90
10042;DHT22;5061;49.068;12.058;2022-12-24T22:11:11;7.20;99.90
10042;DHT22;5061;49.068;12.058;2022-12-24T22:14:51;7.20;99.90
10042;DHT22;5061;49.068;12.058;2022-12-24T22:18:13;7.20;99.90
10042;DHT22;5061;49.068;12.058;2022-12-24T22:21:35;7.20;99.90
10042;DHT22;5061;49.068;12.058;2022-12-24T22:24:55;7.20;99.90
10042;DHT22;5061;49.068;12.058;2022-12-24T22:28:16;7.20;99.90
10042;DHT22;5061;49.068;12.058;2022-12-24T22:31:37;7.30;99.90
10042;DHT22;5061;49.068;12.058;2022-12-24T22:34:59;7.20;99.90
10042;DHT22;5061;49.068;12.058;2022-12-24T22:38:23;7.30;99.90
10042;DHT22;5061;49.068;12.058;2022-12-24T22:41:46;7.30;99.90
10042;DHT22;5061;49.068;12.058;2022-12-24T22:45:08;7.30;99.90
10042;DHT22;5061;49.068;12.058;2022-12-24T22:48:29;7.30;99.90
10042;DHT22;5061;49.068;12.058;2022-12-24T22:51:50;7.30;99.90
10042;DHT22;5061;49.068;12.058;2022-12-24T22:55:10;7.30;99.90
10042;DHT22;5061;49.068;12.058;2022-12-24T22:58:31;7.30;99.90
10042;DHT22;5061;49.068;12.058;2022-12-24T23:01:52;7.30;99.90
10042;DHT22;5061;49.068;12.058;2022-12-24T23:05:14;7.30;99.90
10042;DHT22;5061;49.068;12.058;2022-12-24T23:08:36;7.30;99.90
10042;DHT22;5061;49.068;12.058;2022-12-24T23:11:57;7.30;99.90
10042;DHT22;5061;49.068;12.058;2022-12-24T23:15:17;7.30;99.90
10042;DHT22;5061;49.068;12.058;2022-12-24T23:18:38;7.20;99.90
10042;DHT22;5061;49.068;12.058;2022-12-24T23:22:00;7.20;99.90
10042;DHT22;5061;49.068;12.058;2022-12-24T23:25:21;7.20;99.90
10042;DHT22;5061;49.068;12.058;2022-12-24T23:28:42;7.20;99.90
10042;DHT22;5061;49.068;12.058;2022-12-24T23:32:03;7.20;99.90
10042;DHT22;5061;49.068;12.058;2022-12-24T23:35:24;7.20;99.90
10042;DHT22;5061;49.068;12.058;2022-12-24T23:38:44;7.20;99.90
10042;DHT22;5061;49.068;12.058;2022-12-24T23:42:05;7.20;99.90
10042;DHT22;5061;49.068;12.058;2022-12-24T23:45:26;7.20;99.90
10042;DHT22;5061;49.068;12.058;2022-12-24T23:48:46;7.20;99.90